Time;durP1;ratioP1;P1;durP2;ratioP2;P2;SDS_P1;SDS_P2;PMS_P1;PMS_P2;Temp;Humidity;BMP_temperature;BMP_pressure;BME280_temperature;BME280_humidity;BME280_pressure;Samples;Min_cycle;Max_cycle;Signal;HPM_P1;HPM_P2
2021/07/22 00:04:41;;;;;;;20.50;14.73;;;;;17.00;101785.00;;;;10509835;28;20193;-76
2021/07/22 00:09:43;;;;;;;19.80;14.97;;;;;17.00;101785.00;;;;10526079;28;20583;-76
2021/07/22 00:14:45;;;;;;;21.87;15.17;;;;;16.90;101794.00;;;;10492387;28;20250;-76
2021/07/22 00:19:46;;;;;;;21.57;16.27;;;;;16.80;101791.00;;;;10509013;28;20200;-76
2021/07/22 00:24:48;;;;;;;21.07;15.57;;;;;16.80;101795.00;;;;10485189;28;20201;-76
2021/07/22 00:29:50;;;;;;;19.70;15.63;;;;;16.70;101787.00;;;;10499812;28;20231;-76
2021/07/22 00:34:52;;;;;;;21.23;16.07;;;;;16.60;101786.00;;;;10499971;28;20222;-76
2021/07/22 00:39:54;;;;;;;21.97;18.23;;;;;16.50;101786.00;;;;10524805;28;20201;-76
2021/07/22 00:44:56;;;;;;;24.43;18.50;;;;;16.50;101784.00;;;;10508107;28;20196;-76
2021/07/22 00:50:00;;;;;;;20.23;15.87;;;;;16.50;101783.00;;;;10507825;28;20555;-76
2021/07/22 00:55:04;;;;;;;18.40;15.00;;;;;16.40;101784.00;;;;10450040;28;20235;-76
2021/07/22 01:00:09;;;;;;;22.10;16.73;;;;;16.40;101778.00;;;;10465122;28;20209;-76
2021/07/22 01:05:15;;;;;;;22.83;16.27;;;;;16.30;101783.00;;;;10465624;28;20190;-76
2021/07/22 01:10:17;;;;;;;22.87;18.23;;;;;16.30;101775.00;;;;10482428;28;20591;-76
2021/07/22 01:15:21;;;;;;;23.77;17.63;;;;;16.20;101775.00;;;;10464979;28;20271;-76
2021/07/22 01:20:25;;;;;;;23.97;17.63;;;;;16.20;101779.00;;;;10448530;28;20201;-76
2021/07/22 01:25:29;;;;;;;23.57;18.33;;;;;16.20;101776.00;;;;10436742;28;20224;-76
2021/07/22 01:30:32;;;;;;;25.80;17.70;;;;;16.10;101774.00;;;;10422622;28;20194;-76
2021/07/22 01:35:34;;;;;;;20.07;16.70;;;;;16.00;101768.00;;;;10439342;28;20210;-76
2021/07/22 01:40:36;;;;;;;26.60;18.53;;;;;16.00;101774.00;;;;10406253;28;20217;-76
2021/07/22 01:45:39;;;;;;;25.63;18.30;;;;;15.90;101768.00;;;;10406042;28;20213;-76
2021/07/22 01:50:41;;;;;;;24.83;20.33;;;;;15.90;101765.00;;;;10438784;28;20193;-76
2021/07/22 01:55:43;;;;;;;24.43;18.33;;;;;15.90;101766.00;;;;10389711;28;20285;-76
2021/07/22 02:00:45;;;;;;;22.57;17.20;;;;;15.80;101765.00;;;;10438175;28;20712;-76
2021/07/22 02:05:49;;;;;;;22.70;17.73;;;;;15.80;101759.00;;;;10422101;28;20202;-76
2021/07/22 02:10:52;;;;;;;21.80;17.23;;;;;15.70;101757.00;;;;10438332;28;20236;-76
2021/07/22 02:15:57;;;;;;;21.60;17.80;;;;;15.70;101764.00;;;;10406039;28;20190;-76
2021/07/22 02:21:07;;;;;;;27.40;19.70;;;;;15.60;101764.00;;;;10438998;28;20746;-75
2021/07/22 02:26:14;;;;;;;25.10;18.07;;;;;15.60;101758.00;;;;10508859;28;20219;-76
2021/07/22 02:31:16;;;;;;;25.70;19.73;;;;;15.60;101767.00;;;;10504088;28;20188;-76
2021/07/22 02:36:19;;;;;;;27.27;20.30;;;;;15.50;101767.00;;;;10487676;28;20220;-76
2021/07/22 02:41:29;;;;;;;26.23;19.80;;;;;15.50;101759.00;;;;10525932;28;20220;-76
2021/07/22 02:46:32;;;;;;;33.00;21.63;;;;;15.40;101759.00;;;;10512788;28;20283;-76
2021/07/22 02:51:34;;;;;;;33.83;24.20;;;;;15.40;101761.00;;;;10495698;28;20188;-76
2021/07/22 02:56:42;;;;;;;37.73;24.80;;;;;15.30;101768.00;;;;10490948;28;20621;-76
2021/07/22 03:01:52;;;;;;;35.23;24.80;;;;;15.30;101755.00;;;;10471503;28;20193;-76
2021/07/22 03:06:57;;;;;;;36.47;25.77;;;;;15.30;101758.00;;;;10469844;28;20194;-76
2021/07/22 03:12:00;;;;;;;35.30;25.47;;;;;15.40;101756.00;;;;10453788;28;20204;-76
2021/07/22 03:17:10;;;;;;;34.07;24.33;;;;;15.40;101758.00;;;;10486356;28;20557;-76
2021/07/22 03:22:18;;;;;;;35.37;24.83;;;;;15.40;101754.00;;;;10452986;28;20196;-76
2021/07/22 03:27:20;;;;;;;38.03;25.37;;;;;15.40;101750.00;;;;10469075;28;20212;-76
2021/07/22 03:32:23;;;;;;;36.23;26.33;;;;;15.30;101747.00;;;;10452346;28;20213;-76
2021/07/22 03:37:25;;;;;;;29.87;23.87;;;;;15.30;101742.00;;;;10468524;28;20205;-76
2021/07/22 03:42:29;;;;;;;31.60;24.17;;;;;15.30;101752.00;;;;10469194;28;20708;-76
2021/07/22 03:47:47;;;;;;;33.00;23.80;;;;;15.30;101747.00;;;;10454015;28;20200;-76
2021/07/22 03:52:56;;;;;;;33.20;25.13;;;;;15.30;101746.00;;;;10467395;28;20197;-76
2021/07/22 03:58:00;;;;;;;38.93;25.57;;;;;15.30;101748.00;;;;10484713;28;20653;-76
2021/07/22 04:03:09;;;;;;;36.40;24.53;;;;;15.40;101744.00;;;;10451165;28;20293;-76
2021/07/22 04:08:13;;;;;;;38.37;26.77;;;;;15.40;101748.00;;;;10484270;28;20166;-76
2021/07/22 04:13:35;;;;;;;40.80;27.23;;;;;15.50;101757.00;;;;10467746;28;20221;-76
2021/07/22 04:19:04;;;;;;;39.03;26.23;;;;;15.60;101747.00;;;;10498584;28;20225;-76
2021/07/22 04:24:27;;;;;;;37.60;25.67;;;;;15.70;101759.00;;;;10448286;28;20201;-76
2021/07/22 04:29:45;;;;;;;44.67;30.70;;;;;15.80;101757.00;;;;10442249;28;20183;-76
2021/07/22 04:34:47;;;;;;;48.57;32.10;;;;;15.90;101758.00;;;;10458215;28;20248;-76
2021/07/22 04:40:07;;;;;;;46.03;32.80;;;;;16.10;101763.00;;;;10424958;28;20214;-76
2021/07/22 04:45:36;;;;;;;45.77;32.43;;;;;16.40;101773.00;;;;10428937;28;20214;-76
2021/07/22 04:51:13;;;;;;;56.73;35.27;;;;;16.70;101779.00;;;;10367935;28;20523;-76
2021/07/22 04:56:36;;;;;;;58.40;36.80;;;;;17.00;101776.00;;;;10517966;28;20201;-76
2021/07/22 05:01:40;;;;;;;52.80;34.37;;;;;17.30;101773.00;;;;10479931;28;20226;-76
2021/07/22 05:06:42;;;;;;;51.30;32.33;;;;;17.40;101778.00;;;;10408161;28;20198;-76
2021/07/22 05:12:04;;;;;;;51.07;32.83;;;;;17.50;101780.00;;;;10410431;28;20202;-76
2021/07/22 05:17:19;;;;;;;48.47;32.00;;;;;17.70;101773.00;;;;10440443;28;20205;-76
2021/07/22 05:22:50;;;;;;;55.70;33.93;;;;;18.00;101783.00;;;;10429004;28;20229;-76
2021/07/22 05:28:13;;;;;;;45.73;29.27;;;;;18.30;101780.00;;;;10484484;28;20190;-76
2021/07/22 05:33:48;;;;;;;41.70;28.27;;;;;18.60;101788.00;;;;10468647;28;20239;-76
2021/07/22 05:39:22;;;;;;;46.60;29.30;;;;;18.70;101789.00;;;;10464367;28;20217;-76
2021/07/22 05:44:23;;;;;;;47.43;29.83;;;;;19.10;101791.00;;;;10437566;28;20206;-76
2021/07/22 05:49:25;;;;;;;40.25;27.27;;;;;19.20;101791.00;;;;10439365;28;20182;-77
2021/07/22 05:54:27;;;;;;;42.22;27.70;;;;;19.00;101803.00;;;;10422150;28;20206;-76
2021/07/22 05:59:29;;;;;;;43.83;29.20;;;;;18.80;101802.00;;;;10438327;28;20210;-76
2021/07/22 06:04:31;;;;;;;43.63;28.92;;;;;18.90;101794.00;;;;10422066;28;20199;-77
2021/07/22 06:09:33;;;;;;;46.55;29.20;;;;;19.70;101802.00;;;;10422109;28;20302;-77
2021/07/22 06:14:34;;;;;;;44.28;28.63;;;;;20.20;101810.00;;;;10437949;28;20190;-77
2021/07/22 06:19:36;;;;;;;44.08;29.35;;;;;20.80;101803.00;;;;10421186;28;20248;-77
2021/07/22 06:24:38;;;;;;;39.33;26.50;;;;;21.30;101797.00;;;;10454782;28;20652;-77
2021/07/22 06:29:40;;;;;;;39.55;27.23;;;;;21.60;101800.00;;;;10438008;28;20629;-77
2021/07/22 06:34:42;;;;;;;39.63;26.25;;;;;22.00;101797.00;;;;10437751;28;20221;-77
2021/07/22 06:39:44;;;;;;;39.97;26.10;;;;;22.50;101802.00;;;;10426443;28;20213;-77
2021/07/22 06:44:46;;;;;;;41.30;26.02;;;;;23.00;101796.00;;;;10429838;28;20202;-77
2021/07/22 06:49:47;;;;;;;38.33;25.33;;;;;22.90;101797.00;;;;10421256;28;20205;-76
2021/07/22 06:54:49;;;;;;;38.47;25.13;;;;;23.10;101797.00;;;;10459646;28;20190;-77
2021/07/22 06:59:51;;;;;;;39.08;25.00;;;;;23.10;101796.00;;;;10469513;28;20218;-77
2021/07/22 07:04:53;;;;;;;39.88;26.25;;;;;23.10;101793.00;;;;10425108;28;20568;-77
2021/07/22 07:09:55;;;;;;;38.75;24.83;;;;;23.80;101799.00;;;;10478733;28;20231;-76
2021/07/22 07:15:07;;;;;;;41.60;26.45;;;;;24.40;101795.00;;;;10478720;28;20202;-77
2021/07/22 07:20:09;;;;;;;36.53;24.17;;;;;24.70;101791.00;;;;10443471;28;20221;-77
2021/07/22 07:25:12;;;;;;;37.10;24.70;;;;;25.00;101801.00;;;;10479950;28;20186;-77
2021/07/22 07:30:16;;;;;;;36.08;22.98;;;;;25.10;101792.00;;;;10486457;28;20668;-77
2021/07/22 07:35:18;;;;;;;35.33;23.02;;;;;25.30;101800.00;;;;10469754;28;20260;-77
2021/07/22 07:40:20;;;;;;;35.20;23.35;;;;;25.50;101800.00;;;;10469504;28;20267;-77
2021/07/22 07:45:22;;;;;;;30.27;20.95;;;;;26.00;101796.00;;;;10467832;28;20201;-77
2021/07/22 07:50:24;;;;;;;31.58;21.60;;;;;26.50;101799.00;;;;10427951;28;20579;-77
2021/07/22 07:55:26;;;;;;;28.98;19.40;;;;;27.00;101791.00;;;;10467248;28;20201;-77
2021/07/22 08:00:27;;;;;;;33.90;21.55;;;;;26.80;101790.00;;;;10465139;28;20214;-77
2021/07/22 08:05:30;;;;;;;29.98;20.58;;;;;26.80;101790.00;;;;10444608;28;20194;-77
2021/07/22 08:10:31;;;;;;;26.77;18.80;;;;;27.00;101791.00;;;;10426769;28;20244;-77
2021/07/22 08:15:33;;;;;;;27.50;20.20;;;;;27.40;101784.00;;;;10430963;28;20193;-77
2021/07/22 08:20:35;;;;;;;23.63;18.77;;;;;27.80;101779.00;;;;10459028;28;20271;-77
2021/07/22 08:25:37;;;;;;;25.52;17.92;;;;;27.90;101778.00;;;;10413835;28;20196;-77
2021/07/22 08:30:40;;;;;;;25.38;17.95;;;;;28.30;101770.00;;;;10443048;28;20191;-77
2021/07/22 08:35:43;;;;;;;22.08;17.52;;;;;28.60;101767.00;;;;10465051;28;20213;-77
2021/07/22 08:40:45;;;;;;;21.83;15.75;;;;;28.80;101766.00;;;;10426340;28;20677;-77
2021/07/22 08:45:48;;;;;;;21.55;15.98;;;;;28.90;101757.00;;;;10455178;28;20209;-77
2021/07/22 08:50:50;;;;;;;22.27;16.20;;;;;29.20;101759.00;;;;10501923;28;20181;-77
2021/07/22 08:55:55;;;;;;;16.38;13.93;;;;;29.50;101758.00;;;;10455281;28;20227;-77
2021/07/22 09:01:01;;;;;;;11.13;7.80;;;;;29.20;101756.00;;;;10468925;28;20251;-76
2021/07/22 09:06:14;;;;;;;13.65;10.32;;;;;28.90;101764.00;;;;10484916;28;20193;-76
2021/07/22 09:11:16;;;;;;;13.52;9.98;;;;;28.70;101755.00;;;;10450305;28;20538;-77
2021/07/22 09:16:34;;;;;;;13.43;10.00;;;;;28.90;101748.00;;;;10468708;28;20202;-78
2021/07/22 09:21:39;;;;;;;10.52;9.02;;;;;28.80;101755.00;;;;10484265;28;20726;-77
2021/07/22 09:26:46;;;;;;;10.43;7.63;;;;;28.90;101766.00;;;;10484604;28;20201;-77
2021/07/22 09:31:48;;;;;;;12.82;10.10;;;;;29.70;101759.00;;;;10478730;28;20197;-76
2021/07/22 09:36:50;;;;;;;14.65;10.02;;;;;30.10;101762.00;;;;10441811;28;20201;-77
2021/07/22 09:42:03;;;;;;;14.50;11.77;;;;;29.70;101756.00;;;;10441685;28;20221;-77
2021/07/22 09:47:10;;;;;;;14.35;10.93;;;;;30.40;101760.00;;;;10425809;28;20304;-77
2021/07/22 09:52:18;;;;;;;14.25;10.68;;;;;30.50;101767.00;;;;10430023;28;20186;-77
2021/07/22 09:57:21;;;;;;;13.60;9.07;;;;;30.20;101759.00;;;;10450516;28;20205;-77
2021/07/22 10:02:25;;;;;;;12.75;8.90;;;;;30.20;101759.00;;;;10481608;28;20216;-77
2021/07/22 10:07:28;;;;;;;18.10;10.60;;;;;30.80;101748.00;;;;10500428;28;20190;-77
2021/07/22 10:12:30;;;;;;;10.32;8.85;;;;;31.30;101750.00;;;;10466071;28;20189;-77
2021/07/22 10:17:36;;;;;;;10.88;8.82;;;;;29.10;101753.00;;;;10484167;28;20276;-77
2021/07/22 10:22:41;;;;;;;11.98;9.63;;;;;28.50;101739.00;;;;10460951;28;20218;-77
2021/07/22 10:27:43;;;;;;;12.80;10.40;;;;;29.20;101730.00;;;;10407053;28;20638;-77
2021/07/22 10:32:55;;;;;;;11.00;8.43;;;;;30.40;101736.00;;;;10438997;28;20214;-77
2021/07/22 10:38:09;;;;;;;11.68;9.27;;;;;30.60;101726.00;;;;10435002;28;20233;-77
2021/07/22 10:43:37;;;;;;;17.70;11.85;;;;;30.80;101727.00;;;;10445689;28;20217;-77
2021/07/22 10:48:41;;;;;;;12.07;10.82;;;;;31.30;101722.00;;;;10431635;28;20258;-77
2021/07/22 10:53:54;;;;;;;15.40;10.82;;;;;30.50;101708.00;;;;10462298;28;20528;-77
2021/07/22 10:58:57;;;;;;;13.23;10.90;;;;;30.60;101717.00;;;;10441269;28;20233;-77
2021/07/22 11:03:58;;;;;;;12.25;9.77;;;;;31.50;101716.00;;;;10469829;28;20198;-75
2021/07/22 11:09:08;;;;;;;12.57;9.68;;;;;31.80;101708.00;;;;10463484;28;20646;-77
2021/07/22 11:14:32;;;;;;;15.63;10.95;;;;;31.40;101704.00;;;;10417447;28;20190;-77
2021/07/22 11:19:34;;;;;;;14.23;10.95;;;;;31.50;101707.00;;;;10432790;28;20210;-77
2021/07/22 11:24:36;;;;;;;12.38;11.07;;;;;31.30;101697.00;;;;10469962;28;20204;-77
2021/07/22 11:29:38;;;;;;;12.05;9.10;;;;;30.90;101694.00;;;;10491359;28;20197;-77
2021/07/22 11:34:41;;;;;;;14.57;10.48;;;;;30.60;101687.00;;;;10460771;28;20214;-78
2021/07/22 11:39:44;;;;;;;11.18;9.75;;;;;30.80;101689.00;;;;10473701;28;20198;-77
2021/07/22 11:45:03;;;;;;;11.05;8.82;;;;;31.00;101693.00;;;;10489270;28;20201;-77
2021/07/22 11:50:05;;;;;;;12.93;8.95;;;;;30.70;101689.00;;;;10465857;28;20190;-77
2021/07/22 11:55:10;;;;;;;8.57;7.63;;;;;31.00;101687.00;;;;10460658;28;20197;-77
2021/07/22 12:00:17;;;;;;;10.02;7.40;;;;;31.00;101686.00;;;;10488810;28;20213;-77
2021/07/22 12:05:24;;;;;;;8.32;7.10;;;;;31.00;101676.00;;;;10489564;28;20186;-77
2021/07/22 12:10:31;;;;;;;8.25;6.63;;;;;30.70;101677.00;;;;10456145;28;20190;-77
2021/07/22 12:15:33;;;;;;;9.27;7.30;;;;;30.90;101675.00;;;;10447385;28;20665;-77
2021/07/22 12:20:35;;;;;;;11.05;7.57;;;;;29.70;101666.00;;;;10447380;28;20203;-77
2021/07/22 12:25:54;;;;;;;7.00;6.30;;;;;30.50;101651.00;;;;10461668;28;20285;-77
2021/07/22 12:31:21;;;;;;;7.35;6.10;;;;;30.70;101664.00;;;;10482919;28;20177;-77
2021/07/22 12:36:23;;;;;;;7.07;6.10;;;;;31.10;101654.00;;;;10500786;28;20322;-77
2021/07/22 12:41:26;;;;;;;6.93;5.55;;;;;31.50;101649.00;;;;10445211;28;20207;-78
2021/07/22 12:46:32;;;;;;;6.28;5.25;;;;;30.70;101644.00;;;;10447040;28;20522;-77
2021/07/22 12:51:34;;;;;;;5.75;5.15;;;;;30.70;101638.00;;;;10447152;28;20191;-78
2021/07/22 12:56:43;;;;;;;7.32;5.50;;;;;30.70;101631.00;;;;10460407;28;20209;-75
2021/07/22 13:01:55;;;;;;;6.28;5.10;;;;;30.30;101635.00;;;;10486063;28;20209;-77
2021/07/22 13:06:58;;;;;;;7.57;6.78;;;;;30.70;101635.00;;;;10442654;28;20206;-78
2021/07/22 13:12:00;;;;;;;10.48;6.15;;;;;30.70;101637.00;;;;10446129;28;20277;-77
2021/07/22 13:17:03;;;;;;;7.10;6.15;;;;;30.60;101623.00;;;;10444731;28;20198;-77
2021/07/22 13:22:06;;;;;;;9.98;7.95;;;;;30.60;101605.00;;;;10444939;28;20325;-77
2021/07/22 13:27:08;;;;;;;9.27;8.23;;;;;30.80;101616.00;;;;10444285;28;20197;-77
2021/07/22 13:32:10;;;;;;;10.90;9.32;;;;;30.90;101604.00;;;;10469111;28;20221;-77
2021/07/22 13:37:13;;;;;;;13.88;10.40;;;;;30.60;101604.00;;;;10452341;28;20653;-77
2021/07/22 13:42:14;;;;;;;12.27;9.95;;;;;31.10;101597.00;;;;10485438;28;20229;-78
2021/07/22 13:47:17;;;;;;;13.02;10.55;;;;;30.90;101591.00;;;;10470582;28;20229;-78
2021/07/22 13:52:20;;;;;;;14.48;9.95;;;;;31.40;101588.00;;;;10486024;28;20505;-77
2021/07/22 13:57:22;;;;;;;12.15;9.52;;;;;32.00;101575.00;;;;10452161;28;20602;-77
2021/07/22 14:02:24;;;;;;;10.25;7.60;;;;;33.10;101571.00;;;;10469347;28;20775;-78
2021/07/22 14:07:26;;;;;;;12.65;8.02;;;;;34.00;101563.00;;;;10469362;28;20316;-78
2021/07/22 14:12:28;;;;;;;13.50;8.77;;;;;35.20;101564.00;;;;10485169;28;20182;-77
2021/07/22 14:17:30;;;;;;;10.80;9.07;;;;;35.80;101562.00;;;;10503985;28;20194;-78
2021/07/22 14:22:32;;;;;;;11.90;10.00;;;;;36.80;101557.00;;;;10467848;28;20205;-78
2021/07/22 14:27:34;;;;;;;10.63;8.70;;;;;38.00;101551.00;;;;10485748;28;20185;-78
2021/07/22 14:32:37;;;;;;;11.45;8.77;;;;;38.70;101556.00;;;;10468909;28;20233;-78
2021/07/22 14:37:39;;;;;;;10.85;7.35;;;;;39.20;101552.00;;;;10435334;28;20185;-77
2021/07/22 14:42:41;;;;;;;9.90;7.50;;;;;38.90;101543.00;;;;10502379;28;20201;-78
2021/07/22 14:47:42;;;;;;;8.15;6.60;;;;;39.00;101543.00;;;;10467703;28;20196;-77
2021/07/22 14:52:44;;;;;;;7.90;5.88;;;;;37.50;101533.00;;;;10451935;28;20193;-78
2021/07/22 14:57:46;;;;;;;8.07;6.65;;;;;37.70;101540.00;;;;10468023;28;20258;-78
2021/07/22 15:02:48;;;;;;;7.60;6.22;;;;;38.60;101553.00;;;;10443803;28;20213;-77
2021/07/22 15:07:50;;;;;;;7.82;6.38;;;;;36.60;101528.00;;;;10426510;28;20186;-77
2021/07/22 15:12:54;;;;;;;8.88;6.28;;;;;36.70;101524.00;;;;10410630;28;20278;-78
2021/07/22 15:17:56;;;;;;;11.23;6.43;;;;;38.40;101526.00;;;;10426975;28;20190;-77
2021/07/22 15:23:13;;;;;;;7.78;6.03;;;;;39.30;101521.00;;;;10449004;28;20243;-78
2021/07/22 15:28:15;;;;;;;8.43;6.38;;;;;38.70;101520.00;;;;10493159;28;20208;-77
2021/07/22 15:33:16;;;;;;;6.50;5.85;;;;;39.00;101518.00;;;;10444443;28;20222;-77
2021/07/22 15:38:18;;;;;;;8.02;5.70;;;;;38.20;101525.00;;;;10427193;28;20199;-77
2021/07/22 15:43:22;;;;;;;8.07;6.25;;;;;36.90;101517.00;;;;10428696;28;20218;-77
2021/07/22 15:48:24;;;;;;;10.00;6.15;;;;;37.10;101518.00;;;;10489348;28;20190;-77
2021/07/22 15:53:26;;;;;;;6.30;5.70;;;;;35.80;101521.00;;;;10492182;28;20198;-78
2021/07/22 15:58:30;;;;;;;7.43;5.63;;;;;31.80;101527.00;;;;10474866;28;20193;-78
2021/07/22 16:03:32;;;;;;;6.28;5.68;;;;;30.20;101515.00;;;;10490257;28;20224;-77
2021/07/22 16:08:39;;;;;;;5.95;5.20;;;;;29.70;101514.00;;;;10456945;28;20603;-77
2021/07/22 16:13:41;;;;;;;6.93;6.32;;;;;28.80;101514.00;;;;10489152;28;20204;-77
2021/07/22 16:18:43;;;;;;;12.10;5.90;;;;;28.40;101508.00;;;;10488289;28;20217;-77
2021/07/22 16:23:45;;;;;;;10.23;5.53;;;;;28.00;101501.00;;;;10488036;28;20185;-77
2021/07/22 16:28:47;;;;;;;7.43;5.93;;;;;27.80;101497.00;;;;10470709;28;20556;-77
2021/07/22 16:33:49;;;;;;;8.20;6.00;;;;;27.70;101491.00;;;;10454240;28;20210;-77
2021/07/22 16:38:51;;;;;;;6.75;5.82;;;;;27.50;101480.00;;;;10454371;28;20197;-77
2021/07/22 16:43:54;;;;;;;6.88;5.40;;;;;27.20;101486.00;;;;10469662;28;20235;-77
2021/07/22 16:48:56;;;;;;;9.10;5.00;;;;;26.90;101480.00;;;;10452609;28;20251;-77
2021/07/22 16:53:58;;;;;;;6.53;5.82;;;;;26.80;101478.00;;;;10471060;28;20198;-77
2021/07/22 16:59:00;;;;;;;6.13;5.13;;;;;26.70;101481.00;;;;10425369;28;20220;-77
2021/07/22 17:04:02;;;;;;;9.25;6.15;;;;;26.60;101477.00;;;;10425938;28;20260;-77
2021/07/22 17:09:05;;;;;;;6.43;5.63;;;;;26.40;101475.00;;;;10442713;28;20182;-77
2021/07/22 17:14:07;;;;;;;6.53;5.68;;;;;26.20;101470.00;;;;10442065;28;20186;-77
2021/07/22 17:19:09;;;;;;;8.05;5.68;;;;;26.10;101473.00;;;;10425289;28;20214;-77
2021/07/22 17:24:11;;;;;;;10.10;5.63;;;;;25.90;101469.00;;;;10459135;28;20198;-77
2021/07/22 17:29:13;;;;;;;8.98;5.18;;;;;25.80;101468.00;;;;10425871;28;20201;-77
2021/07/22 17:34:15;;;;;;;11.80;5.90;;;;;25.80;101470.00;;;;10442052;28;20305;-77
2021/07/22 17:39:17;;;;;;;8.27;6.50;;;;;25.60;101461.00;;;;10441190;28;20209;-77
2021/07/22 17:44:19;;;;;;;7.22;6.15;;;;;25.40;101467.00;;;;10440621;28;20197;-77
2021/07/22 17:49:21;;;;;;;8.57;6.05;;;;;25.30;101459.00;;;;10440638;28;20186;-77
2021/07/22 17:54:23;;;;;;;6.65;5.53;;;;;25.00;101469.00;;;;10424220;28;20210;-77
2021/07/22 17:59:24;;;;;;;7.88;5.72;;;;;24.80;101475.00;;;;10423266;28;20292;-77
2021/07/22 18:04:27;;;;;;;10.27;6.00;;;;;24.70;101470.00;;;;10439825;28;20198;-77
2021/07/22 18:09:29;;;;;;;8.13;4.95;;;;;24.60;101472.00;;;;10439400;28;20196;-76
2021/07/22 18:14:31;;;;;;;7.20;5.70;;;;;24.50;101480.00;;;;10452286;28;20697;-77
2021/07/22 18:19:33;;;;;;;5.43;4.93;;;;;24.30;101476.00;;;;10486225;28;20600;-77
2021/07/22 18:24:35;;;;;;;7.78;5.60;;;;;24.10;101476.00;;;;10447255;28;20201;-77
2021/07/22 18:29:37;;;;;;;5.90;5.28;;;;;24.00;101475.00;;;;10463749;28;20186;-77
2021/07/22 18:34:49;;;;;;;5.72;5.05;;;;;23.80;101476.00;;;;10440030;28;20246;-77
2021/07/22 18:39:50;;;;;;;5.82;4.60;;;;;23.60;101472.00;;;;10456514;28;20198;-77
2021/07/22 18:44:52;;;;;;;7.45;5.00;;;;;23.50;101482.00;;;;10408954;28;20213;-76
2021/07/22 18:49:54;;;;;;;6.80;4.63;;;;;23.30;101475.00;;;;10425055;28;20825;-77
2021/07/22 18:54:56;;;;;;;5.40;4.80;;;;;23.10;101476.00;;;;10468024;28;20541;-77
2021/07/22 18:59:58;;;;;;;20.80;5.63;;;;;22.90;101477.00;;;;10443484;28;20711;-76
2021/07/22 19:05:00;;;;;;;25.58;6.55;;;;;22.60;101472.00;;;;10437119;28;20197;-77
2021/07/22 19:10:04;;;;;;;28.15;6.93;;;;;22.40;101475.00;;;;10462215;28;20205;-77
2021/07/22 19:15:09;;;;;;;8.55;6.78;;;;;22.10;101476.00;;;;10442727;28;20592;-77
2021/07/22 19:20:13;;;;;;;8.45;7.10;;;;;21.90;101485.00;;;;10424122;28;20214;-77
2021/07/22 19:25:16;;;;;;;8.68;7.03;;;;;21.60;101482.00;;;;10462090;28;20565;-76
2021/07/22 19:30:18;;;;;;;10.88;8.23;;;;;21.40;101489.00;;;;10451942;28;20847;-76
2021/07/22 19:35:20;;;;;;;11.65;8.13;;;;;21.10;101497.00;;;;10460292;28;20222;-77
2021/07/22 19:40:21;;;;;;;11.43;8.80;;;;;20.90;101491.00;;;;10451330;28;20205;-77
2021/07/22 19:45:23;;;;;;;15.40;9.45;;;;;20.70;101494.00;;;;10450462;28;20210;-77
2021/07/22 19:50:28;;;;;;;14.88;8.45;;;;;20.50;101501.00;;;;10478983;28;20190;-77
2021/07/22 19:55:29;;;;;;;15.25;9.18;;;;;20.30;101503.00;;;;10446314;28;20210;-77
2021/07/22 20:00:32;;;;;;;11.45;8.75;;;;;20.10;101509.00;;;;10451344;28;20229;-77
2021/07/22 20:05:34;;;;;;;14.57;8.82;;;;;20.00;101513.00;;;;10458549;28;20554;-77
2021/07/22 20:10:38;;;;;;;13.80;8.90;;;;;19.90;101514.00;;;;10447229;28;20185;-76
2021/07/22 20:15:40;;;;;;;14.63;9.63;;;;;19.80;101519.00;;;;10450408;28;20186;-77
2021/07/22 20:20:42;;;;;;;15.43;8.90;;;;;19.70;101511.00;;;;10453326;28;20205;-76
2021/07/22 20:25:44;;;;;;;13.80;9.25;;;;;19.50;101525.00;;;;10467270;28;20196;-77
2021/07/22 20:30:46;;;;;;;13.90;8.32;;;;;19.40;101519.00;;;;10427234;28;20189;-77
2021/07/22 20:35:48;;;;;;;13.05;7.75;;;;;19.40;101523.00;;;;10429446;28;20226;-77
2021/07/22 20:40:50;;;;;;;9.23;7.18;;;;;19.30;101518.00;;;;10456959;28;20202;-77
2021/07/22 20:45:52;;;;;;;10.63;7.10;;;;;19.30;101521.00;;;;10480628;28;20685;-76
2021/07/22 20:50:54;;;;;;;10.23;7.05;;;;;19.20;101514.00;;;;10454377;28;20186;-77
2021/07/22 20:55:56;;;;;;;10.98;6.55;;;;;19.10;101511.00;;;;10447899;28;20201;-76
2021/07/22 21:00:57;;;;;;;11.93;6.53;;;;;18.90;101511.00;;;;10456490;28;20224;-77
2021/07/22 21:05:59;;;;;;;9.77;6.25;;;;;18.80;101515.00;;;;10437596;28;20661;-76
2021/07/22 21:11:02;;;;;;;8.30;6.63;;;;;18.70;101514.00;;;;10473925;28;20182;-77
2021/07/22 21:16:04;;;;;;;7.03;5.40;;;;;18.60;101519.00;;;;10481072;28;20198;-77
2021/07/22 21:21:12;;;;;;;7.05;5.47;;;;;18.50;101518.00;;;;10464422;28;20256;-76
2021/07/22 21:26:14;;;;;;;7.80;6.13;;;;;18.40;101513.00;;;;10438777;28;20220;-77
2021/07/22 21:31:16;;;;;;;11.00;5.72;;;;;18.30;101523.00;;;;10471056;28;20206;-77
2021/07/22 21:36:18;;;;;;;6.78;4.85;;;;;18.20;101516.00;;;;10456242;28;20213;-77
2021/07/22 21:41:20;;;;;;;6.88;3.75;;;;;18.20;101517.00;;;;10458030;28;20199;-77
2021/07/22 21:46:22;;;;;;;4.95;4.47;;;;;18.10;101523.00;;;;10496831;28;20193;-77
2021/07/22 21:51:25;;;;;;;6.57;4.30;;;;;18.00;101518.00;;;;10459600;28;20201;-77
2021/07/22 21:56:27;;;;;;;6.30;4.32;;;;;17.90;101523.00;;;;10464952;28;20186;-77
2021/07/22 22:01:29;;;;;;;5.75;4.22;;;;;17.80;101532.00;;;;10431585;28;20657;-77
2021/07/22 22:06:31;;;;;;;4.72;4.13;;;;;17.70;101529.00;;;;10436292;28;20286;-77
2021/07/22 22:11:33;;;;;;;6.10;4.57;;;;;17.60;101534.00;;;;10449359;28;20649;-76
2021/07/22 22:16:35;;;;;;;5.20;4.60;;;;;17.40;101540.00;;;;10445387;28;20197;-76
2021/07/22 22:21:37;;;;;;;8.00;4.40;;;;;17.30;101538.00;;;;10449551;28;20206;-76
2021/07/22 22:26:39;;;;;;;9.07;4.33;;;;;17.20;101542.00;;;;10435002;28;20186;-76
2021/07/22 22:31:41;;;;;;;8.53;5.27;;;;;17.10;101536.00;;;;10454263;28;20208;-76
2021/07/22 22:36:43;;;;;;;6.17;5.50;;;;;17.00;101546.00;;;;10445464;28;20201;-76
2021/07/22 22:41:45;;;;;;;7.80;6.03;;;;;16.90;101533.00;;;;10466729;28;20210;-76
2021/07/22 22:46:46;;;;;;;10.90;6.03;;;;;16.80;101539.00;;;;10431788;28;20649;-76
2021/07/22 22:51:48;;;;;;;7.60;6.13;;;;;16.70;101547.00;;;;10452030;28;20272;-76
2021/07/22 22:56:50;;;;;;;5.67;5.00;;;;;16.60;101544.00;;;;10477832;28;20880;-76
2021/07/22 23:01:52;;;;;;;9.87;6.17;;;;;16.50;101543.00;;;;10446153;28;20214;-76
2021/07/22 23:06:54;;;;;;;7.50;5.33;;;;;16.40;101542.00;;;;10415500;28;20190;-76
2021/07/22 23:11:56;;;;;;;6.83;5.07;;;;;16.30;101542.00;;;;10452978;28;20190;-76
2021/07/22 23:16:58;;;;;;;7.53;5.27;;;;;16.30;101547.00;;;;10469079;28;20189;-76
2021/07/22 23:22:00;;;;;;;6.67;5.20;;;;;16.20;101538.00;;;;10467766;28;20261;-75
2021/07/22 23:27:03;;;;;;;8.57;5.67;;;;;16.10;101549.00;;;;10451991;28;20252;-75
2021/07/22 23:32:05;;;;;;;10.13;5.70;;;;;16.00;101541.00;;;;10447443;28;20206;-76
2021/07/22 23:37:07;;;;;;;9.77;5.23;;;;;16.00;101553.00;;;;10427431;28;20209;-76
2021/07/22 23:42:09;;;;;;;10.30;6.30;;;;;15.90;101552.00;;;;10449906;28;20210;-75
2021/07/22 23:47:10;;;;;;;9.30;6.23;;;;;15.80;101550.00;;;;10443201;28;20189;-76
2021/07/22 23:52:12;;;;;;;6.97;6.07;;;;;15.70;101546.00;;;;10459708;28;20236;-75
2021/07/22 23:57:14;;;;;;;7.47;5.90;;;;;15.50;101556.00;;;;10468423;28;20201;-76
